sensor_id;sensor_type;location;lat;lon;timestamp;P1;durP1;ratioP1;P2;durP2;ratioP2
3901;SDS011;1966;49.908;9.156;2022-12-31T00:03:50;1.70;;;1.60;;
3901;SDS011;1966;49.908;9.156;2022-12-31T00:09:10;1.37;;;1.37;;
3901;SDS011;1966;49.908;9.156;2022-12-31T00:14:31;1.63;;;1.53;;
3901;SDS011;1966;49.908;9.156;2022-12-31T00:19:50;1.80;;;1.70;;
3901;SDS011;1966;49.908;9.156;2022-12-31T00:25:10;1.60;;;1.50;;
3901;SDS011;1966;49.908;9.156;2022-12-31T00:30:31;1.50;;;1.40;;
3901;SDS011;1966;49.908;9.156;2022-12-31T00:35:52;1.60;;;1.50;;
3901;SDS011;1966;49.908;9.156;2022-12-31T00:41:11;1.57;;;1.47;;
3901;SDS011;1966;49.908;9.156;2022-12-31T00:46:32;1.37;;;1.27;;
3901;SDS011;1966;49.908;9.156;2022-12-31T00:51:52;1.67;;;1.57;;
3901;SDS011;1966;49.908;9.156;2022-12-31T00:57:12;1.47;;;1.37;;
3901;SDS011;1966;49.908;9.156;2022-12-31T01:02:33;1.57;;;1.47;;
3901;SDS011;1966;49.908;9.156;2022-12-31T01:07:52;1.50;;;1.40;;
3901;SDS011;1966;49.908;9.156;2022-12-31T01:13:12;1.37;;;1.27;;
3901;SDS011;1966;49.908;9.156;2022-12-31T01:18:33;1.23;;;1.17;;
3901;SDS011;1966;49.908;9.156;2022-12-31T01:23:52;1.30;;;1.20;;
3901;SDS011;1966;49.908;9.156;2022-12-31T01:29:12;1.40;;;1.30;;
3901;SDS011;1966;49.908;9.156;2022-12-31T01:34:33;1.93;;;1.40;;
3901;SDS011;1966;49.908;9.156;2022-12-31T01:39:53;1.20;;;1.20;;
3901;SDS011;1966;49.908;9.156;2022-12-31T01:45:12;1.30;;;1.20;;
3901;SDS011;1966;49.908;9.156;2022-12-31T01:50:33;1.50;;;1.40;;
3901;SDS011;1966;49.908;9.156;2022-12-31T01:55:56;1.63;;;1.53;;
3901;SDS011;1966;49.908;9.156;2022-12-31T02:01:17;1.67;;;1.50;;
3901;SDS011;1966;49.908;9.156;2022-12-31T02:06:42;1.60;;;1.50;;
3901;SDS011;1966;49.908;9.156;2022-12-31T02:12:03;1.67;;;1.57;;
3901;SDS011;1966;49.908;9.156;2022-12-31T02:17:24;2.47;;;1.63;;
3901;SDS011;1966;49.908;9.156;2022-12-31T02:22:55;2.13;;;1.40;;
3901;SDS011;1966;49.908;9.156;2022-12-31T02:28:24;2.13;;;1.93;;
3901;SDS011;1966;49.908;9.156;2022-12-31T02:33:50;2.10;;;1.70;;
3901;SDS011;1966;49.908;9.156;2022-12-31T02:39:11;2.03;;;1.80;;
3901;SDS011;1966;49.908;9.156;2022-12-31T02:44:33;3.07;;;1.60;;
3901;SDS011;1966;49.908;9.156;2022-12-31T02:50:00;2.70;;;1.70;;
3901;SDS011;1966;49.908;9.156;2022-12-31T02:55:24;1.70;;;1.60;;
3901;SDS011;1966;49.908;9.156;2022-12-31T03:00:45;2.13;;;1.83;;
3901;SDS011;1966;49.908;9.156;2022-12-31T03:06:25;2.67;;;1.83;;
3901;SDS011;1966;49.908;9.156;2022-12-31T03:11:45;2.63;;;1.57;;
3901;SDS011;1966;49.908;9.156;2022-12-31T03:17:23;2.20;;;1.63;;
3901;SDS011;1966;49.908;9.156;2022-12-31T03:22:44;1.97;;;1.87;;
3901;SDS011;1966;49.908;9.156;2022-12-31T03:28:04;1.70;;;1.60;;
3901;SDS011;1966;49.908;9.156;2022-12-31T03:33:25;3.23;;;1.70;;
3901;SDS011;1966;49.908;9.156;2022-12-31T03:38:46;1.63;;;1.53;;
3901;SDS011;1966;49.908;9.156;2022-12-31T03:44:05;1.90;;;1.70;;
3901;SDS011;1966;49.908;9.156;2022-12-31T03:49:25;1.83;;;1.73;;
3901;SDS011;1966;49.908;9.156;2022-12-31T03:54:46;1.70;;;1.60;;
3901;SDS011;1966;49.908;9.156;2022-12-31T04:00:06;1.70;;;1.60;;
3901;SDS011;1966;49.908;9.156;2022-12-31T04:05:26;2.30;;;1.60;;
3901;SDS011;1966;49.908;9.156;2022-12-31T04:10:48;2.50;;;1.50;;
3901;SDS011;1966;49.908;9.156;2022-12-31T04:16:07;2.50;;;1.70;;
3901;SDS011;1966;49.908;9.156;2022-12-31T04:21:27;2.23;;;1.80;;
3901;SDS011;1966;49.908;9.156;2022-12-31T04:26:48;1.73;;;1.50;;
3901;SDS011;1966;49.908;9.156;2022-12-31T04:32:08;1.70;;;1.60;;
3901;SDS011;1966;49.908;9.156;2022-12-31T04:37:28;2.23;;;1.60;;
3901;SDS011;1966;49.908;9.156;2022-12-31T04:42:48;1.60;;;1.47;;
3901;SDS011;1966;49.908;9.156;2022-12-31T04:48:08;3.40;;;1.73;;
3901;SDS011;1966;49.908;9.156;2022-12-31T04:53:28;1.77;;;1.53;;
3901;SDS011;1966;49.908;9.156;2022-12-31T04:58:49;1.67;;;1.40;;
3901;SDS011;1966;49.908;9.156;2022-12-31T05:04:08;1.60;;;1.50;;
3901;SDS011;1966;49.908;9.156;2022-12-31T05:09:28;1.50;;;1.40;;
3901;SDS011;1966;49.908;9.156;2022-12-31T05:14:49;1.93;;;1.83;;
3901;SDS011;1966;49.908;9.156;2022-12-31T05:20:09;3.80;;;1.90;;
3901;SDS011;1966;49.908;9.156;2022-12-31T05:25:28;1.83;;;1.73;;
3901;SDS011;1966;49.908;9.156;2022-12-31T05:30:49;3.83;;;1.60;;
3901;SDS011;1966;49.908;9.156;2022-12-31T05:36:09;1.90;;;1.53;;
3901;SDS011;1966;49.908;9.156;2022-12-31T05:41:29;3.57;;;1.60;;
3901;SDS011;1966;49.908;9.156;2022-12-31T05:46:50;1.83;;;1.70;;
3901;SDS011;1966;49.908;9.156;2022-12-31T05:52:09;1.70;;;1.50;;
3901;SDS011;1966;49.908;9.156;2022-12-31T05:57:29;3.17;;;1.63;;
3901;SDS011;1966;49.908;9.156;2022-12-31T06:02:50;1.50;;;1.40;;
3901;SDS011;1966;49.908;9.156;2022-12-31T06:08:10;2.00;;;1.80;;
3901;SDS011;1966;49.908;9.156;2022-12-31T06:13:29;1.90;;;1.60;;
3901;SDS011;1966;49.908;9.156;2022-12-31T06:18:50;1.87;;;1.77;;
3901;SDS011;1966;49.908;9.156;2022-12-31T06:24:10;1.70;;;1.57;;
3901;SDS011;1966;49.908;9.156;2022-12-31T06:29:29;1.60;;;1.50;;
3901;SDS011;1966;49.908;9.156;2022-12-31T06:34:50;1.97;;;1.77;;
3901;SDS011;1966;49.908;9.156;2022-12-31T06:40:10;2.60;;;1.60;;
3901;SDS011;1966;49.908;9.156;2022-12-31T06:45:30;2.20;;;2.00;;
3901;SDS011;1966;49.908;9.156;2022-12-31T06:50:50;1.80;;;1.70;;
3901;SDS011;1966;49.908;9.156;2022-12-31T06:56:12;4.10;;;1.60;;
3901;SDS011;1966;49.908;9.156;2022-12-31T07:01:36;2.13;;;1.40;;
3901;SDS011;1966;49.908;9.156;2022-12-31T07:07:00;2.20;;;1.60;;
3901;SDS011;1966;49.908;9.156;2022-12-31T07:12:27;2.00;;;1.70;;
3901;SDS011;1966;49.908;9.156;2022-12-31T07:17:51;1.60;;;1.50;;
3901;SDS011;1966;49.908;9.156;2022-12-31T07:23:16;1.80;;;1.70;;
3901;SDS011;1966;49.908;9.156;2022-12-31T07:28:39;4.90;;;2.80;;
3901;SDS011;1966;49.908;9.156;2022-12-31T07:34:03;2.43;;;2.20;;
3901;SDS011;1966;49.908;9.156;2022-12-31T07:39:30;2.27;;;2.00;;
3901;SDS011;1966;49.908;9.156;2022-12-31T07:44:54;2.07;;;1.87;;
3901;SDS011;1966;49.908;9.156;2022-12-31T07:50:16;1.63;;;1.47;;
3901;SDS011;1966;49.908;9.156;2022-12-31T07:55:37;3.23;;;1.80;;
3901;SDS011;1966;49.908;9.156;2022-12-31T08:00:57;1.90;;;1.70;;
3901;SDS011;1966;49.908;9.156;2022-12-31T08:06:18;3.43;;;1.80;;
3901;SDS011;1966;49.908;9.156;2022-12-31T08:11:44;2.43;;;2.00;;
3901;SDS011;1966;49.908;9.156;2022-12-31T08:17:08;3.17;;;1.90;;
3901;SDS011;1966;49.908;9.156;2022-12-31T08:22:36;2.17;;;1.97;;
3901;SDS011;1966;49.908;9.156;2022-12-31T08:28:01;2.20;;;1.77;;
3901;SDS011;1966;49.908;9.156;2022-12-31T08:33:24;2.23;;;1.80;;
3901;SDS011;1966;49.908;9.156;2022-12-31T08:38:46;2.70;;;1.43;;
3901;SDS011;1966;49.908;9.156;2022-12-31T08:44:12;2.80;;;1.83;;
3901;SDS011;1966;49.908;9.156;2022-12-31T08:49:35;2.93;;;1.70;;
3901;SDS011;1966;49.908;9.156;2022-12-31T08:54:55;2.00;;;1.80;;
3901;SDS011;1966;49.908;9.156;2022-12-31T09:00:16;2.60;;;1.70;;
3901;SDS011;1966;49.908;9.156;2022-12-31T09:05:49;1.60;;;1.50;;
3901;SDS011;1966;49.908;9.156;2022-12-31T09:11:12;2.93;;;1.70;;
3901;SDS011;1966;49.908;9.156;2022-12-31T09:16:35;2.17;;;1.97;;
3901;SDS011;1966;49.908;9.156;2022-12-31T09:21:58;4.53;;;1.93;;
3901;SDS011;1966;49.908;9.156;2022-12-31T09:27:21;3.50;;;2.10;;
3901;SDS011;1966;49.908;9.156;2022-12-31T09:32:46;2.10;;;1.90;;
3901;SDS011;1966;49.908;9.156;2022-12-31T09:38:09;2.13;;;1.80;;
3901;SDS011;1966;49.908;9.156;2022-12-31T09:43:37;2.27;;;2.07;;
3901;SDS011;1966;49.908;9.156;2022-12-31T09:49:08;3.40;;;1.93;;
3901;SDS011;1966;49.908;9.156;2022-12-31T09:54:35;5.27;;;2.10;;
3901;SDS011;1966;49.908;9.156;2022-12-31T09:59:59;2.47;;;2.00;;
3901;SDS011;1966;49.908;9.156;2022-12-31T10:05:29;6.50;;;2.50;;
3901;SDS011;1966;49.908;9.156;2022-12-31T10:10:52;3.00;;;1.97;;
3901;SDS011;1966;49.908;9.156;2022-12-31T10:16:17;3.63;;;1.87;;
3901;SDS011;1966;49.908;9.156;2022-12-31T10:21:45;4.73;;;2.00;;
3901;SDS011;1966;49.908;9.156;2022-12-31T10:27:10;1.87;;;1.60;;
3901;SDS011;1966;49.908;9.156;2022-12-31T10:32:39;2.80;;;2.30;;
3901;SDS011;1966;49.908;9.156;2022-12-31T10:38:05;3.60;;;2.40;;
3901;SDS011;1966;49.908;9.156;2022-12-31T10:43:35;2.73;;;2.27;;
3901;SDS011;1966;49.908;9.156;2022-12-31T10:49:02;2.20;;;2.00;;
3901;SDS011;1966;49.908;9.156;2022-12-31T11:00:08;3.07;;;2.10;;
3901;SDS011;1966;49.908;9.156;2022-12-31T11:05:47;2.10;;;1.90;;
3901;SDS011;1966;49.908;9.156;2022-12-31T11:11:11;4.60;;;2.13;;
3901;SDS011;1966;49.908;9.156;2022-12-31T11:16:45;2.10;;;1.90;;
3901;SDS011;1966;49.908;9.156;2022-12-31T11:22:19;2.80;;;1.97;;
3901;SDS011;1966;49.908;9.156;2022-12-31T11:27:48;6.13;;;2.00;;
3901;SDS011;1966;49.908;9.156;2022-12-31T11:33:13;3.20;;;1.93;;
3901;SDS011;1966;49.908;9.156;2022-12-31T11:38:35;4.47;;;2.33;;
3901;SDS011;1966;49.908;9.156;2022-12-31T11:43:59;3.90;;;2.10;;
3901;SDS011;1966;49.908;9.156;2022-12-31T11:49:25;4.17;;;2.37;;
3901;SDS011;1966;49.908;9.156;2022-12-31T11:54:52;2.00;;;1.80;;
3901;SDS011;1966;49.908;9.156;2022-12-31T12:00:16;2.53;;;2.10;;
3901;SDS011;1966;49.908;9.156;2022-12-31T12:05:39;3.90;;;2.43;;
3901;SDS011;1966;49.908;9.156;2022-12-31T12:10:59;6.23;;;2.20;;
3901;SDS011;1966;49.908;9.156;2022-12-31T12:16:21;2.50;;;2.13;;
3901;SDS011;1966;49.908;9.156;2022-12-31T12:21:45;2.10;;;1.80;;
3901;SDS011;1966;49.908;9.156;2022-12-31T12:27:15;2.93;;;2.17;;
3901;SDS011;1966;49.908;9.156;2022-12-31T12:32:38;2.10;;;2.00;;
3901;SDS011;1966;49.908;9.156;2022-12-31T12:38:00;3.37;;;2.10;;
3901;SDS011;1966;49.908;9.156;2022-12-31T12:43:20;2.90;;;2.07;;
3901;SDS011;1966;49.908;9.156;2022-12-31T12:48:41;3.73;;;1.90;;
3901;SDS011;1966;49.908;9.156;2022-12-31T12:54:04;2.00;;;1.80;;
3901;SDS011;1966;49.908;9.156;2022-12-31T12:59:32;2.60;;;1.70;;
3901;SDS011;1966;49.908;9.156;2022-12-31T13:04:59;1.80;;;1.70;;
3901;SDS011;1966;49.908;9.156;2022-12-31T13:10:27;2.77;;;1.73;;
3901;SDS011;1966;49.908;9.156;2022-12-31T13:15:49;2.83;;;1.77;;
3901;SDS011;1966;49.908;9.156;2022-12-31T13:26:50;3.67;;;1.67;;
3901;SDS011;1966;49.908;9.156;2022-12-31T13:32:14;3.07;;;1.83;;
3901;SDS011;1966;49.908;9.156;2022-12-31T13:37:35;3.43;;;1.70;;
3901;SDS011;1966;49.908;9.156;2022-12-31T13:43:00;1.90;;;1.80;;
3901;SDS011;1966;49.908;9.156;2022-12-31T13:48:23;1.67;;;1.57;;
3901;SDS011;1966;49.908;9.156;2022-12-31T13:53:44;2.60;;;1.60;;
3901;SDS011;1966;49.908;9.156;2022-12-31T13:59:15;2.30;;;1.80;;
3901;SDS011;1966;49.908;9.156;2022-12-31T14:04:38;4.63;;;3.23;;
3901;SDS011;1966;49.908;9.156;2022-12-31T14:09:59;1.70;;;1.60;;
3901;SDS011;1966;49.908;9.156;2022-12-31T14:15:21;2.93;;;2.00;;
3901;SDS011;1966;49.908;9.156;2022-12-31T14:20:44;2.10;;;2.00;;
3901;SDS011;1966;49.908;9.156;2022-12-31T14:26:06;3.43;;;2.17;;
3901;SDS011;1966;49.908;9.156;2022-12-31T14:31:31;1.80;;;1.60;;
3901;SDS011;1966;49.908;9.156;2022-12-31T14:36:55;3.33;;;1.93;;
3901;SDS011;1966;49.908;9.156;2022-12-31T14:42:20;2.00;;;1.73;;
3901;SDS011;1966;49.908;9.156;2022-12-31T14:47:45;3.10;;;2.10;;
3901;SDS011;1966;49.908;9.156;2022-12-31T14:53:16;4.50;;;2.00;;
3901;SDS011;1966;49.908;9.156;2022-12-31T14:58:37;2.17;;;1.97;;
3901;SDS011;1966;49.908;9.156;2022-12-31T15:03:58;2.80;;;2.37;;
3901;SDS011;1966;49.908;9.156;2022-12-31T15:09:19;3.40;;;2.40;;
3901;SDS011;1966;49.908;9.156;2022-12-31T15:14:48;2.60;;;2.20;;
3901;SDS011;1966;49.908;9.156;2022-12-31T15:20:16;3.63;;;2.87;;
3901;SDS011;1966;49.908;9.156;2022-12-31T15:25:37;3.20;;;2.90;;
3901;SDS011;1966;49.908;9.156;2022-12-31T15:30:59;2.60;;;2.40;;
3901;SDS011;1966;49.908;9.156;2022-12-31T15:36:22;3.03;;;2.70;;
3901;SDS011;1966;49.908;9.156;2022-12-31T15:41:43;4.00;;;3.20;;
3901;SDS011;1966;49.908;9.156;2022-12-31T15:47:03;3.67;;;3.37;;
3901;SDS011;1966;49.908;9.156;2022-12-31T15:52:31;4.17;;;3.60;;
3901;SDS011;1966;49.908;9.156;2022-12-31T15:57:52;4.53;;;3.60;;
3901;SDS011;1966;49.908;9.156;2022-12-31T16:03:17;3.40;;;2.60;;
3901;SDS011;1966;49.908;9.156;2022-12-31T16:08:39;2.77;;;2.43;;
3901;SDS011;1966;49.908;9.156;2022-12-31T16:14:02;7.87;;;5.07;;
3901;SDS011;1966;49.908;9.156;2022-12-31T16:19:31;2.60;;;2.40;;
3901;SDS011;1966;49.908;9.156;2022-12-31T16:24:54;5.70;;;4.10;;
3901;SDS011;1966;49.908;9.156;2022-12-31T16:30:17;5.37;;;3.87;;
3901;SDS011;1966;49.908;9.156;2022-12-31T16:37:35;5.10;;;3.27;;
3901;SDS011;1966;49.908;9.156;2022-12-31T16:42:37;4.80;;;3.50;;
3901;SDS011;1966;49.908;9.156;2022-12-31T16:47:37;3.27;;;2.57;;
3901;SDS011;1966;49.908;9.156;2022-12-31T16:52:42;3.60;;;2.73;;
3901;SDS011;1966;49.908;9.156;2022-12-31T16:57:43;2.97;;;2.67;;
3901;SDS011;1966;49.908;9.156;2022-12-31T17:02:45;3.37;;;2.60;;
3901;SDS011;1966;49.908;9.156;2022-12-31T17:07:47;5.43;;;3.47;;
3901;SDS011;1966;49.908;9.156;2022-12-31T17:12:48;3.20;;;2.50;;
3901;SDS011;1966;49.908;9.156;2022-12-31T17:17:51;2.37;;;2.17;;
3901;SDS011;1966;49.908;9.156;2022-12-31T17:22:54;4.43;;;2.57;;
3901;SDS011;1966;49.908;9.156;2022-12-31T17:27:55;4.90;;;2.80;;
3901;SDS011;1966;49.908;9.156;2022-12-31T17:32:57;2.30;;;2.10;;
3901;SDS011;1966;49.908;9.156;2022-12-31T17:43:29;2.50;;;2.30;;
3901;SDS011;1966;49.908;9.156;2022-12-31T17:48:29;2.10;;;1.97;;
3901;SDS011;1966;49.908;9.156;2022-12-31T17:53:29;2.53;;;2.33;;
3901;SDS011;1966;49.908;9.156;2022-12-31T17:58:30;2.40;;;2.20;;
3901;SDS011;1966;49.908;9.156;2022-12-31T18:03:31;2.23;;;2.03;;
3901;SDS011;1966;49.908;9.156;2022-12-31T18:08:30;2.53;;;2.33;;
3901;SDS011;1966;49.908;9.156;2022-12-31T18:13:31;5.00;;;2.50;;
3901;SDS011;1966;49.908;9.156;2022-12-31T18:18:31;2.60;;;2.40;;
3901;SDS011;1966;49.908;9.156;2022-12-31T18:23:34;4.77;;;2.80;;
3901;SDS011;1966;49.908;9.156;2022-12-31T18:28:35;4.33;;;3.40;;
3901;SDS011;1966;49.908;9.156;2022-12-31T18:33:35;4.40;;;2.90;;
3901;SDS011;1966;49.908;9.156;2022-12-31T18:38:34;5.20;;;3.63;;
3901;SDS011;1966;49.908;9.156;2022-12-31T18:43:35;3.20;;;2.90;;
3901;SDS011;1966;49.908;9.156;2022-12-31T18:48:35;5.63;;;3.30;;
3901;SDS011;1966;49.908;9.156;2022-12-31T18:53:34;4.40;;;3.30;;
3901;SDS011;1966;49.908;9.156;2022-12-31T18:58:35;3.53;;;2.80;;
3901;SDS011;1966;49.908;9.156;2022-12-31T19:03:35;2.53;;;2.30;;
3901;SDS011;1966;49.908;9.156;2022-12-31T19:08:35;4.77;;;2.40;;
3901;SDS011;1966;49.908;9.156;2022-12-31T19:13:36;2.80;;;2.30;;
3901;SDS011;1966;49.908;9.156;2022-12-31T19:18:36;4.70;;;2.40;;
3901;SDS011;1966;49.908;9.156;2022-12-31T19:23:35;2.70;;;2.50;;
3901;SDS011;1966;49.908;9.156;2022-12-31T19:28:36;3.50;;;2.80;;
3901;SDS011;1966;49.908;9.156;2022-12-31T19:33:36;2.90;;;2.60;;
3901;SDS011;1966;49.908;9.156;2022-12-31T19:38:35;3.90;;;3.20;;
3901;SDS011;1966;49.908;9.156;2022-12-31T19:43:36;3.20;;;2.53;;
3901;SDS011;1966;49.908;9.156;2022-12-31T19:48:36;5.10;;;3.87;;
3901;SDS011;1966;49.908;9.156;2022-12-31T19:53:37;4.33;;;2.70;;
3901;SDS011;1966;49.908;9.156;2022-12-31T19:58:38;2.40;;;2.20;;
3901;SDS011;1966;49.908;9.156;2022-12-31T20:03:38;3.10;;;2.63;;
3901;SDS011;1966;49.908;9.156;2022-12-31T20:08:37;4.73;;;2.87;;
3901;SDS011;1966;49.908;9.156;2022-12-31T20:13:42;4.63;;;3.90;;
3901;SDS011;1966;49.908;9.156;2022-12-31T20:18:42;9.20;;;5.00;;
3901;SDS011;1966;49.908;9.156;2022-12-31T20:23:41;5.90;;;4.87;;
3901;SDS011;1966;49.908;9.156;2022-12-31T20:28:42;4.27;;;3.43;;
3901;SDS011;1966;49.908;9.156;2022-12-31T20:33:42;5.63;;;3.83;;
3901;SDS011;1966;49.908;9.156;2022-12-31T20:38:42;4.43;;;3.73;;
3901;SDS011;1966;49.908;9.156;2022-12-31T20:43:43;3.63;;;2.60;;
3901;SDS011;1966;49.908;9.156;2022-12-31T20:48:43;2.93;;;2.60;;
3901;SDS011;1966;49.908;9.156;2022-12-31T20:53:44;4.30;;;3.03;;
3901;SDS011;1966;49.908;9.156;2022-12-31T20:58:45;3.40;;;3.10;;
3901;SDS011;1966;49.908;9.156;2022-12-31T21:03:45;4.17;;;2.40;;
3901;SDS011;1966;49.908;9.156;2022-12-31T21:08:45;2.60;;;2.40;;
3901;SDS011;1966;49.908;9.156;2022-12-31T21:13:46;2.40;;;2.20;;
3901;SDS011;1966;49.908;9.156;2022-12-31T21:18:45;5.00;;;2.80;;
3901;SDS011;1966;49.908;9.156;2022-12-31T21:23:45;2.80;;;2.53;;
3901;SDS011;1966;49.908;9.156;2022-12-31T21:28:46;4.50;;;3.23;;
3901;SDS011;1966;49.908;9.156;2022-12-31T21:33:48;2.40;;;2.20;;
3901;SDS011;1966;49.908;9.156;2022-12-31T21:38:47;6.73;;;3.43;;
3901;SDS011;1966;49.908;9.156;2022-12-31T21:43:48;3.60;;;2.87;;
3901;SDS011;1966;49.908;9.156;2022-12-31T21:48:52;3.50;;;2.40;;
3901;SDS011;1966;49.908;9.156;2022-12-31T21:53:51;3.17;;;2.40;;
3901;SDS011;1966;49.908;9.156;2022-12-31T21:58:53;3.00;;;2.70;;
3901;SDS011;1966;49.908;9.156;2022-12-31T22:04:11;1.90;;;1.80;;
3901;SDS011;1966;49.908;9.156;2022-12-31T22:09:10;2.57;;;2.10;;
3901;SDS011;1966;49.908;9.156;2022-12-31T22:14:11;2.43;;;2.23;;
3901;SDS011;1966;49.908;9.156;2022-12-31T22:19:10;3.43;;;2.70;;
3901;SDS011;1966;49.908;9.156;2022-12-31T22:24:10;2.40;;;2.20;;
3901;SDS011;1966;49.908;9.156;2022-12-31T22:29:11;3.83;;;3.10;;
3901;SDS011;1966;49.908;9.156;2022-12-31T22:34:11;2.57;;;2.30;;
3901;SDS011;1966;49.908;9.156;2022-12-31T22:39:12;3.03;;;2.70;;
3901;SDS011;1966;49.908;9.156;2022-12-31T22:44:13;3.13;;;2.83;;
3901;SDS011;1966;49.908;9.156;2022-12-31T22:49:14;5.07;;;3.60;;
3901;SDS011;1966;49.908;9.156;2022-12-31T22:54:15;3.90;;;2.40;;
3901;SDS011;1966;49.908;9.156;2022-12-31T22:59:16;2.80;;;2.40;;
3901;SDS011;1966;49.908;9.156;2022-12-31T23:04:16;5.57;;;4.70;;
3901;SDS011;1966;49.908;9.156;2022-12-31T23:09:16;43.30;;;27.87;;
3901;SDS011;1966;49.908;9.156;2022-12-31T23:14:37;59.73;;;37.37;;
3901;SDS011;1966;49.908;9.156;2022-12-31T23:19:54;48.67;;;32.50;;
3901;SDS011;1966;49.908;9.156;2022-12-31T23:25:11;20.27;;;16.47;;
3901;SDS011;1966;49.908;9.156;2022-12-31T23:30:12;29.07;;;17.53;;
3901;SDS011;1966;49.908;9.156;2022-12-31T23:35:12;29.07;;;18.07;;
3901;SDS011;1966;49.908;9.156;2022-12-31T23:40:12;31.03;;;20.07;;
3901;SDS011;1966;49.908;9.156;2022-12-31T23:45:13;30.83;;;21.10;;
3901;SDS011;1966;49.908;9.156;2022-12-31T23:50:12;36.27;;;22.90;;
3901;SDS011;1966;49.908;9.156;2022-12-31T23:55:12;41.57;;;25.90;;
